South Strafford, Vermont
Current Conditions -  °F | °C
As of 11:53 PM on Saturday 25 Oct 2014 (Local Time) from KLEB Reporting Station
Clear Clear  
Wind Chill: 44°   Ceiling: Unl
Heat Index: 48°   Visibility: 10mi
Dew Point: 43°   Wind: 9mph
Humidity: 83%   Direction: 170°S
Pressure: 29.47"   Gusts: NA
Location:  43.84°N, 72.37°W
Report Text: KLEB 260353Z AUTO 17008KT 10SM CLR 09/06 A2947 RMK AO2 SLP979 T00890061
Loading
Personal Weather Stations






























Interactive Weather Map
Tropical Storm Tracking
New forecast layout! Learn more

10-Day Weather Forecast

Advertisements
Track Severe Weather on mobile